sensor_id;sensor_type;location;lat;lon;timestamp;temperature;humidity
610;DHT22;292;48.800;9.216;2023-05-16T00:01:12;15.90;73.40
610;DHT22;292;48.800;9.216;2023-05-16T00:03:39;15.90;73.50
610;DHT22;292;48.800;9.216;2023-05-16T00:06:09;16.00;73.40
610;DHT22;292;48.800;9.216;2023-05-16T00:08:36;15.90;73.40
610;DHT22;292;48.800;9.216;2023-05-16T00:11:03;15.90;73.40
610;DHT22;292;48.800;9.216;2023-05-16T00:13:30;15.90;73.50
610;DHT22;292;48.800;9.216;2023-05-16T00:15:57;15.90;73.50
610;DHT22;292;48.800;9.216;2023-05-16T00:18:27;15.90;73.70
610;DHT22;292;48.800;9.216;2023-05-16T00:20:54;15.90;73.70
610;DHT22;292;48.800;9.216;2023-05-16T00:23:22;15.90;73.50
610;DHT22;292;48.800;9.216;2023-05-16T00:25:50;15.90;73.40
610;DHT22;292;48.800;9.216;2023-05-16T00:28:18;15.90;73.40
610;DHT22;292;48.800;9.216;2023-05-16T00:30:45;15.90;73.40
610;DHT22;292;48.800;9.216;2023-05-16T00:33:12;15.80;73.50
610;DHT22;292;48.800;9.216;2023-05-16T00:35:39;15.80;73.70
610;DHT22;292;48.800;9.216;2023-05-16T00:38:06;15.80;73.80
610;DHT22;292;48.800;9.216;2023-05-16T00:40:34;15.80;73.80
610;DHT22;292;48.800;9.216;2023-05-16T00:43:01;15.80;73.90
610;DHT22;292;48.800;9.216;2023-05-16T00:45:29;15.80;74.10
610;DHT22;292;48.800;9.216;2023-05-16T00:47:56;15.80;74.20
610;DHT22;292;48.800;9.216;2023-05-16T00:50:23;15.80;74.20
610;DHT22;292;48.800;9.216;2023-05-16T00:52:50;15.70;74.40
610;DHT22;292;48.800;9.216;2023-05-16T00:55:17;15.70;74.40
610;DHT22;292;48.800;9.216;2023-05-16T00:57:46;15.70;74.40
610;DHT22;292;48.800;9.216;2023-05-16T01:00:13;15.70;74.40
610;DHT22;292;48.800;9.216;2023-05-16T01:02:41;15.70;74.50
610;DHT22;292;48.800;9.216;2023-05-16T01:05:08;15.70;74.70
610;DHT22;292;48.800;9.216;2023-05-16T01:07:35;15.70;74.70
610;DHT22;292;48.800;9.216;2023-05-16T01:10:03;15.70;74.50
610;DHT22;292;48.800;9.216;2023-05-16T01:12:39;15.70;74.40
610;DHT22;292;48.800;9.216;2023-05-16T01:15:13;15.60;74.50
610;DHT22;292;48.800;9.216;2023-05-16T01:17:50;15.60;74.70
610;DHT22;292;48.800;9.216;2023-05-16T01:20:29;15.60;74.80
610;DHT22;292;48.800;9.216;2023-05-16T01:23:06;15.50;75.10
610;DHT22;292;48.800;9.216;2023-05-16T01:25:45;15.50;75.10
610;DHT22;292;48.800;9.216;2023-05-16T01:28:15;15.50;75.20
610;DHT22;292;48.800;9.216;2023-05-16T01:30:44;15.50;75.40
610;DHT22;292;48.800;9.216;2023-05-16T01:33:11;15.50;75.50
610;DHT22;292;48.800;9.216;2023-05-16T01:35:42;15.50;75.70
610;DHT22;292;48.800;9.216;2023-05-16T01:38:17;15.50;75.80
610;DHT22;292;48.800;9.216;2023-05-16T01:40:52;15.50;75.70
610;DHT22;292;48.800;9.216;2023-05-16T01:43:28;15.40;75.70
610;DHT22;292;48.800;9.216;2023-05-16T01:46:01;15.30;75.80
610;DHT22;292;48.800;9.216;2023-05-16T01:48:34;15.20;75.80
610;DHT22;292;48.800;9.216;2023-05-16T01:51:03;15.20;76.00
610;DHT22;292;48.800;9.216;2023-05-16T01:53:35;15.10;76.00
610;DHT22;292;48.800;9.216;2023-05-16T01:56:04;15.10;76.20
610;DHT22;292;48.800;9.216;2023-05-16T01:58:36;15.00;76.40
610;DHT22;292;48.800;9.216;2023-05-16T02:01:04;15.00;76.70
610;DHT22;292;48.800;9.216;2023-05-16T02:03:32;14.90;76.80
610;DHT22;292;48.800;9.216;2023-05-16T02:05:59;14.90;76.80
610;DHT22;292;48.800;9.216;2023-05-16T02:08:27;14.80;77.00
610;DHT22;292;48.800;9.216;2023-05-16T02:10:55;14.80;77.10
610;DHT22;292;48.800;9.216;2023-05-16T02:13:22;14.70;77.30
610;DHT22;292;48.800;9.216;2023-05-16T02:15:50;14.70;77.40
610;DHT22;292;48.800;9.216;2023-05-16T02:18:24;14.70;77.50
610;DHT22;292;48.800;9.216;2023-05-16T02:20:53;14.70;77.80
610;DHT22;292;48.800;9.216;2023-05-16T02:23:20;14.70;77.80
610;DHT22;292;48.800;9.216;2023-05-16T02:25:47;14.70;78.00
610;DHT22;292;48.800;9.216;2023-05-16T02:28:14;14.80;78.10
610;DHT22;292;48.800;9.216;2023-05-16T02:30:41;14.80;78.10
610;DHT22;292;48.800;9.216;2023-05-16T02:33:10;14.80;78.10
610;DHT22;292;48.800;9.216;2023-05-16T02:35:37;14.80;78.10
610;DHT22;292;48.800;9.216;2023-05-16T02:38:04;14.80;78.00
610;DHT22;292;48.800;9.216;2023-05-16T02:40:31;14.80;77.80
610;DHT22;292;48.800;9.216;2023-05-16T02:42:58;14.80;77.70
610;DHT22;292;48.800;9.216;2023-05-16T02:45:25;14.80;78.00
610;DHT22;292;48.800;9.216;2023-05-16T02:47:52;14.80;78.00
610;DHT22;292;48.800;9.216;2023-05-16T02:50:21;14.90;78.10
610;DHT22;292;48.800;9.216;2023-05-16T02:52:48;14.90;78.10
610;DHT22;292;48.800;9.216;2023-05-16T02:55:15;14.90;77.80
610;DHT22;292;48.800;9.216;2023-05-16T02:57:42;14.90;77.80
610;DHT22;292;48.800;9.216;2023-05-16T03:00:10;14.90;77.70
610;DHT22;292;48.800;9.216;2023-05-16T03:02:39;14.90;77.70
610;DHT22;292;48.800;9.216;2023-05-16T03:05:06;14.90;77.50
610;DHT22;292;48.800;9.216;2023-05-16T03:07:36;14.90;77.40
610;DHT22;292;48.800;9.216;2023-05-16T03:10:04;14.90;77.40
610;DHT22;292;48.800;9.216;2023-05-16T03:12:31;14.80;77.50
610;DHT22;292;48.800;9.216;2023-05-16T03:14:58;14.80;77.50
610;DHT22;292;48.800;9.216;2023-05-16T03:17:26;14.90;77.50
610;DHT22;292;48.800;9.216;2023-05-16T03:19:53;14.80;77.40
610;DHT22;292;48.800;9.216;2023-05-16T03:22:20;14.80;77.40
610;DHT22;292;48.800;9.216;2023-05-16T03:24:48;14.80;77.40
610;DHT22;292;48.800;9.216;2023-05-16T03:27:15;14.80;77.40
610;DHT22;292;48.800;9.216;2023-05-16T03:29:42;14.70;77.40
610;DHT22;292;48.800;9.216;2023-05-16T03:32:10;14.70;77.70
610;DHT22;292;48.800;9.216;2023-05-16T03:34:37;14.70;77.80
610;DHT22;292;48.800;9.216;2023-05-16T03:37:05;14.60;78.00
610;DHT22;292;48.800;9.216;2023-05-16T03:39:32;14.60;78.00
610;DHT22;292;48.800;9.216;2023-05-16T03:42:01;14.50;78.10
610;DHT22;292;48.800;9.216;2023-05-16T03:44:28;14.50;78.30
610;DHT22;292;48.800;9.216;2023-05-16T03:46:56;14.40;78.60
610;DHT22;292;48.800;9.216;2023-05-16T03:49:26;14.40;78.80
610;DHT22;292;48.800;9.216;2023-05-16T03:51:53;14.40;78.80
610;DHT22;292;48.800;9.216;2023-05-16T03:54:20;14.40;79.00
610;DHT22;292;48.800;9.216;2023-05-16T03:56:47;14.40;79.10
610;DHT22;292;48.800;9.216;2023-05-16T03:59:15;14.40;79.30
610;DHT22;292;48.800;9.216;2023-05-16T04:01:43;14.40;79.40
610;DHT22;292;48.800;9.216;2023-05-16T04:04:10;14.40;79.30
610;DHT22;292;48.800;9.216;2023-05-16T04:06:37;14.40;79.30
610;DHT22;292;48.800;9.216;2023-05-16T04:09:04;14.40;79.60
610;DHT22;292;48.800;9.216;2023-05-16T04:11:33;14.40;79.70
610;DHT22;292;48.800;9.216;2023-05-16T04:14:00;14.40;79.70
610;DHT22;292;48.800;9.216;2023-05-16T04:16:29;14.40;79.70
610;DHT22;292;48.800;9.216;2023-05-16T04:18:56;14.40;79.90
610;DHT22;292;48.800;9.216;2023-05-16T04:21:24;14.40;80.00
610;DHT22;292;48.800;9.216;2023-05-16T04:23:50;14.40;80.00
610;DHT22;292;48.800;9.216;2023-05-16T04:26:17;14.40;80.10
610;DHT22;292;48.800;9.216;2023-05-16T04:28:46;14.30;80.10
610;DHT22;292;48.800;9.216;2023-05-16T04:31:13;14.40;80.30
610;DHT22;292;48.800;9.216;2023-05-16T04:33:42;14.40;80.40
610;DHT22;292;48.800;9.216;2023-05-16T04:36:09;14.40;80.40
610;DHT22;292;48.800;9.216;2023-05-16T04:38:36;14.40;80.40
610;DHT22;292;48.800;9.216;2023-05-16T04:41:04;14.40;80.60
610;DHT22;292;48.800;9.216;2023-05-16T04:43:31;14.40;80.60
610;DHT22;292;48.800;9.216;2023-05-16T04:45:58;14.40;80.60
610;DHT22;292;48.800;9.216;2023-05-16T04:48:25;14.50;80.60
610;DHT22;292;48.800;9.216;2023-05-16T04:50:53;14.50;80.60
610;DHT22;292;48.800;9.216;2023-05-16T04:53:20;14.50;80.60
610;DHT22;292;48.800;9.216;2023-05-16T04:55:47;14.50;80.40
610;DHT22;292;48.800;9.216;2023-05-16T04:58:14;14.60;80.40
610;DHT22;292;48.800;9.216;2023-05-16T05:00:41;14.60;80.40
610;DHT22;292;48.800;9.216;2023-05-16T05:03:08;14.60;80.30
610;DHT22;292;48.800;9.216;2023-05-16T05:05:35;14.60;80.30
610;DHT22;292;48.800;9.216;2023-05-16T05:08:04;14.60;80.10
610;DHT22;292;48.800;9.216;2023-05-16T05:10:32;14.60;80.10
610;DHT22;292;48.800;9.216;2023-05-16T05:12:59;14.60;80.10
610;DHT22;292;48.800;9.216;2023-05-16T05:15:26;14.60;80.00
610;DHT22;292;48.800;9.216;2023-05-16T05:17:53;14.60;80.30
610;DHT22;292;48.800;9.216;2023-05-16T05:20:20;14.60;80.30
610;DHT22;292;48.800;9.216;2023-05-16T05:22:47;14.60;80.30
610;DHT22;292;48.800;9.216;2023-05-16T05:25:16;14.60;80.30
610;DHT22;292;48.800;9.216;2023-05-16T05:27:43;14.60;80.40
610;DHT22;292;48.800;9.216;2023-05-16T05:30:11;14.60;80.30
610;DHT22;292;48.800;9.216;2023-05-16T05:32:38;14.60;80.30
610;DHT22;292;48.800;9.216;2023-05-16T05:35:05;14.60;80.10
610;DHT22;292;48.800;9.216;2023-05-16T05:37:33;14.60;80.30
610;DHT22;292;48.800;9.216;2023-05-16T05:40:00;14.60;80.10
610;DHT22;292;48.800;9.216;2023-05-16T05:42:29;14.60;80.30
610;DHT22;292;48.800;9.216;2023-05-16T05:44:56;14.50;80.30
610;DHT22;292;48.800;9.216;2023-05-16T05:47:23;14.50;80.30
610;DHT22;292;48.800;9.216;2023-05-16T05:49:50;14.50;80.40
610;DHT22;292;48.800;9.216;2023-05-16T05:52:17;14.50;80.60
610;DHT22;292;48.800;9.216;2023-05-16T05:54:45;14.50;80.70
610;DHT22;292;48.800;9.216;2023-05-16T05:57:13;14.50;80.70
610;DHT22;292;48.800;9.216;2023-05-16T05:59:41;14.50;80.70
610;DHT22;292;48.800;9.216;2023-05-16T06:02:08;14.50;80.70
610;DHT22;292;48.800;9.216;2023-05-16T06:04:36;14.50;80.70
610;DHT22;292;48.800;9.216;2023-05-16T06:07:03;14.50;80.70
610;DHT22;292;48.800;9.216;2023-05-16T06:09:32;14.60;80.70
610;DHT22;292;48.800;9.216;2023-05-16T06:12:00;14.50;80.60
610;DHT22;292;48.800;9.216;2023-05-16T06:14:28;14.50;80.60
610;DHT22;292;48.800;9.216;2023-05-16T06:16:57;14.50;80.60
610;DHT22;292;48.800;9.216;2023-05-16T06:19:25;14.50;80.40
610;DHT22;292;48.800;9.216;2023-05-16T06:21:52;14.50;80.60
610;DHT22;292;48.800;9.216;2023-05-16T06:24:19;14.50;80.60
610;DHT22;292;48.800;9.216;2023-05-16T06:26:46;14.50;80.60
610;DHT22;292;48.800;9.216;2023-05-16T06:29:14;14.60;80.60
610;DHT22;292;48.800;9.216;2023-05-16T06:31:41;14.60;80.60
610;DHT22;292;48.800;9.216;2023-05-16T06:34:10;14.60;80.40
610;DHT22;292;48.800;9.216;2023-05-16T06:36:37;14.60;80.40
610;DHT22;292;48.800;9.216;2023-05-16T06:39:04;14.60;80.40
610;DHT22;292;48.800;9.216;2023-05-16T06:41:31;14.70;80.40
610;DHT22;292;48.800;9.216;2023-05-16T06:43:58;14.70;80.30
610;DHT22;292;48.800;9.216;2023-05-16T06:46:25;14.80;80.10
610;DHT22;292;48.800;9.216;2023-05-16T06:48:53;14.80;80.00
610;DHT22;292;48.800;9.216;2023-05-16T06:51:21;14.80;79.70
610;DHT22;292;48.800;9.216;2023-05-16T06:53:49;14.80;79.60
610;DHT22;292;48.800;9.216;2023-05-16T06:56:16;14.80;79.40
610;DHT22;292;48.800;9.216;2023-05-16T06:58:43;14.80;79.40
610;DHT22;292;48.800;9.216;2023-05-16T07:01:10;14.80;79.40
610;DHT22;292;48.800;9.216;2023-05-16T07:03:37;14.80;79.30
610;DHT22;292;48.800;9.216;2023-05-16T07:06:06;14.80;79.30
610;DHT22;292;48.800;9.216;2023-05-16T07:08:35;14.80;79.10
610;DHT22;292;48.800;9.216;2023-05-16T07:11:02;14.80;79.10
610;DHT22;292;48.800;9.216;2023-05-16T07:13:30;14.80;79.10
610;DHT22;292;48.800;9.216;2023-05-16T07:15:57;14.80;78.80
610;DHT22;292;48.800;9.216;2023-05-16T07:18:24;14.80;78.80
610;DHT22;292;48.800;9.216;2023-05-16T07:20:51;14.80;78.80
610;DHT22;292;48.800;9.216;2023-05-16T07:23:18;14.80;78.70
610;DHT22;292;48.800;9.216;2023-05-16T07:25:46;14.80;78.70
610;DHT22;292;48.800;9.216;2023-05-16T07:28:13;14.80;78.60
610;DHT22;292;48.800;9.216;2023-05-16T07:30:40;14.80;78.60
610;DHT22;292;48.800;9.216;2023-05-16T07:33:07;14.80;78.30
610;DHT22;292;48.800;9.216;2023-05-16T07:35:35;14.80;77.80
610;DHT22;292;48.800;9.216;2023-05-16T07:38:03;14.80;77.70
610;DHT22;292;48.800;9.216;2023-05-16T07:40:30;14.70;77.50
610;DHT22;292;48.800;9.216;2023-05-16T07:42:59;14.70;77.50
610;DHT22;292;48.800;9.216;2023-05-16T07:45:27;14.70;77.50
610;DHT22;292;48.800;9.216;2023-05-16T07:47:54;14.70;77.30
610;DHT22;292;48.800;9.216;2023-05-16T07:50:21;14.60;77.30
610;DHT22;292;48.800;9.216;2023-05-16T07:52:48;14.60;77.10
610;DHT22;292;48.800;9.216;2023-05-16T07:55:15;14.60;76.80
610;DHT22;292;48.800;9.216;2023-05-16T07:57:42;14.60;76.80
610;DHT22;292;48.800;9.216;2023-05-16T08:00:13;14.60;77.10
610;DHT22;292;48.800;9.216;2023-05-16T08:02:40;14.60;77.10
610;DHT22;292;48.800;9.216;2023-05-16T08:05:08;14.60;77.10
610;DHT22;292;48.800;9.216;2023-05-16T08:07:35;14.70;77.00
610;DHT22;292;48.800;9.216;2023-05-16T08:10:02;14.70;76.70
610;DHT22;292;48.800;9.216;2023-05-16T08:12:29;14.70;76.50
610;DHT22;292;48.800;9.216;2023-05-16T08:14:56;14.70;76.20
610;DHT22;292;48.800;9.216;2023-05-16T08:17:25;14.80;76.20
610;DHT22;292;48.800;9.216;2023-05-16T08:19:52;14.80;75.70
610;DHT22;292;48.800;9.216;2023-05-16T08:22:19;14.80;75.20
610;DHT22;292;48.800;9.216;2023-05-16T08:24:46;14.80;75.20
610;DHT22;292;48.800;9.216;2023-05-16T08:27:13;14.80;75.20
610;DHT22;292;48.800;9.216;2023-05-16T08:29:40;14.80;75.40
610;DHT22;292;48.800;9.216;2023-05-16T08:32:08;14.80;75.40
610;DHT22;292;48.800;9.216;2023-05-16T08:34:37;14.80;75.20
610;DHT22;292;48.800;9.216;2023-05-16T08:37:04;14.80;75.10
610;DHT22;292;48.800;9.216;2023-05-16T08:39:31;14.80;75.00
610;DHT22;292;48.800;9.216;2023-05-16T08:41:58;14.80;74.80
610;DHT22;292;48.800;9.216;2023-05-16T08:44:27;14.80;74.80
610;DHT22;292;48.800;9.216;2023-05-16T08:46:54;14.80;74.80
610;DHT22;292;48.800;9.216;2023-05-16T08:49:26;14.80;74.80
610;DHT22;292;48.800;9.216;2023-05-16T08:51:56;14.80;74.80
610;DHT22;292;48.800;9.216;2023-05-16T08:54:24;14.70;75.00
610;DHT22;292;48.800;9.216;2023-05-16T08:56:52;14.70;75.00
610;DHT22;292;48.800;9.216;2023-05-16T08:59:19;14.70;75.10
610;DHT22;292;48.800;9.216;2023-05-16T09:01:46;14.70;75.20
610;DHT22;292;48.800;9.216;2023-05-16T09:04:15;14.70;75.20
610;DHT22;292;48.800;9.216;2023-05-16T09:06:42;14.70;75.50
610;DHT22;292;48.800;9.216;2023-05-16T09:09:10;14.70;75.50
610;DHT22;292;48.800;9.216;2023-05-16T09:11:37;14.70;75.80
610;DHT22;292;48.800;9.216;2023-05-16T09:14:04;14.70;76.00
610;DHT22;292;48.800;9.216;2023-05-16T09:16:32;14.70;76.10
610;DHT22;292;48.800;9.216;2023-05-16T09:19:00;14.70;76.20
610;DHT22;292;48.800;9.216;2023-05-16T09:21:28;14.70;76.40
610;DHT22;292;48.800;9.216;2023-05-16T09:24:02;14.70;76.50
610;DHT22;292;48.800;9.216;2023-05-16T09:26:33;14.70;76.70
610;DHT22;292;48.800;9.216;2023-05-16T09:29:00;14.70;76.70
610;DHT22;292;48.800;9.216;2023-05-16T09:31:28;14.70;76.80
610;DHT22;292;48.800;9.216;2023-05-16T09:34:02;14.70;77.00
610;DHT22;292;48.800;9.216;2023-05-16T09:36:30;14.70;77.00
610;DHT22;292;48.800;9.216;2023-05-16T09:38:58;14.80;77.00
610;DHT22;292;48.800;9.216;2023-05-16T09:41:26;14.80;77.00
610;DHT22;292;48.800;9.216;2023-05-16T09:43:54;14.80;77.00
610;DHT22;292;48.800;9.216;2023-05-16T09:46:24;14.80;77.10
610;DHT22;292;48.800;9.216;2023-05-16T09:48:52;14.80;77.10
610;DHT22;292;48.800;9.216;2023-05-16T09:51:21;14.80;77.30
610;DHT22;292;48.800;9.216;2023-05-16T09:53:48;14.90;77.40
610;DHT22;292;48.800;9.216;2023-05-16T09:56:18;14.90;77.40
610;DHT22;292;48.800;9.216;2023-05-16T09:58:46;15.00;77.30
610;DHT22;292;48.800;9.216;2023-05-16T10:01:14;15.10;77.00
610;DHT22;292;48.800;9.216;2023-05-16T10:03:42;15.10;76.80
610;DHT22;292;48.800;9.216;2023-05-16T10:06:09;15.20;76.70
610;DHT22;292;48.800;9.216;2023-05-16T10:08:41;15.20;76.50
610;DHT22;292;48.800;9.216;2023-05-16T10:11:09;15.20;76.20
610;DHT22;292;48.800;9.216;2023-05-16T10:13:37;15.30;76.10
610;DHT22;292;48.800;9.216;2023-05-16T10:16:06;15.30;76.00
610;DHT22;292;48.800;9.216;2023-05-16T10:18:35;15.30;75.80
610;DHT22;292;48.800;9.216;2023-05-16T10:21:05;15.30;76.00
610;DHT22;292;48.800;9.216;2023-05-16T10:23:33;15.30;76.00
610;DHT22;292;48.800;9.216;2023-05-16T10:26:02;15.30;76.00
610;DHT22;292;48.800;9.216;2023-05-16T10:28:31;15.30;75.70
610;DHT22;292;48.800;9.216;2023-05-16T10:30:58;15.40;75.20
610;DHT22;292;48.800;9.216;2023-05-16T10:33:27;15.40;75.00
610;DHT22;292;48.800;9.216;2023-05-16T10:35:56;15.40;74.80
610;DHT22;292;48.800;9.216;2023-05-16T10:38:23;15.50;75.00
610;DHT22;292;48.800;9.216;2023-05-16T10:40:50;15.50;75.00
610;DHT22;292;48.800;9.216;2023-05-16T10:43:25;15.50;74.70
610;DHT22;292;48.800;9.216;2023-05-16T10:45:54;15.60;74.50
610;DHT22;292;48.800;9.216;2023-05-16T10:48:28;15.60;74.40
610;DHT22;292;48.800;9.216;2023-05-16T10:50:59;15.70;74.20
610;DHT22;292;48.800;9.216;2023-05-16T10:53:32;15.70;74.20
610;DHT22;292;48.800;9.216;2023-05-16T10:56:09;15.80;74.40
610;DHT22;292;48.800;9.216;2023-05-16T10:58:45;15.80;74.40
610;DHT22;292;48.800;9.216;2023-05-16T11:01:23;15.80;74.20
610;DHT22;292;48.800;9.216;2023-05-16T11:04:05;15.90;74.10
610;DHT22;292;48.800;9.216;2023-05-16T11:06:35;15.90;73.90
610;DHT22;292;48.800;9.216;2023-05-16T11:09:24;15.80;73.70
610;DHT22;292;48.800;9.216;2023-05-16T11:11:56;15.80;73.80
610;DHT22;292;48.800;9.216;2023-05-16T11:14:27;15.80;73.80
610;DHT22;292;48.800;9.216;2023-05-16T11:17:00;15.80;73.80
610;DHT22;292;48.800;9.216;2023-05-16T11:19:31;15.70;73.80
610;DHT22;292;48.800;9.216;2023-05-16T11:22:22;15.60;74.20
610;DHT22;292;48.800;9.216;2023-05-16T11:24:51;15.50;74.80
610;DHT22;292;48.800;9.216;2023-05-16T11:27:24;15.50;75.20
610;DHT22;292;48.800;9.216;2023-05-16T11:29:54;15.40;75.80
610;DHT22;292;48.800;9.216;2023-05-16T11:32:22;15.30;75.80
610;DHT22;292;48.800;9.216;2023-05-16T11:34:51;15.20;76.00
610;DHT22;292;48.800;9.216;2023-05-16T11:37:20;15.10;76.50
610;DHT22;292;48.800;9.216;2023-05-16T11:39:47;15.00;77.10
610;DHT22;292;48.800;9.216;2023-05-16T11:42:14;15.00;77.40
610;DHT22;292;48.800;9.216;2023-05-16T11:44:42;14.90;78.00
610;DHT22;292;48.800;9.216;2023-05-16T11:47:10;14.80;78.40
610;DHT22;292;48.800;9.216;2023-05-16T11:49:37;14.80;78.70
610;DHT22;292;48.800;9.216;2023-05-16T11:52:07;14.70;79.00
610;DHT22;292;48.800;9.216;2023-05-16T11:54:36;14.70;79.30
610;DHT22;292;48.800;9.216;2023-05-16T11:57:04;14.60;79.30
610;DHT22;292;48.800;9.216;2023-05-16T11:59:31;14.60;79.30
610;DHT22;292;48.800;9.216;2023-05-16T12:02:02;14.60;79.40
610;DHT22;292;48.800;9.216;2023-05-16T12:04:30;14.60;79.40
610;DHT22;292;48.800;9.216;2023-05-16T12:06:59;14.50;79.40
610;DHT22;292;48.800;9.216;2023-05-16T12:09:27;14.50;79.10
610;DHT22;292;48.800;9.216;2023-05-16T12:11:56;14.50;79.10
610;DHT22;292;48.800;9.216;2023-05-16T12:14:23;14.50;79.30
610;DHT22;292;48.800;9.216;2023-05-16T12:16:51;14.50;79.10
610;DHT22;292;48.800;9.216;2023-05-16T12:19:19;14.50;78.80
610;DHT22;292;48.800;9.216;2023-05-16T12:21:46;14.50;78.60
610;DHT22;292;48.800;9.216;2023-05-16T12:24:14;14.50;78.40
610;DHT22;292;48.800;9.216;2023-05-16T12:26:42;14.50;78.40
610;DHT22;292;48.800;9.216;2023-05-16T12:29:11;14.50;78.30
610;DHT22;292;48.800;9.216;2023-05-16T12:31:39;14.50;78.00
610;DHT22;292;48.800;9.216;2023-05-16T12:34:18;14.60;77.80
610;DHT22;292;48.800;9.216;2023-05-16T12:36:50;14.60;77.50
610;DHT22;292;48.800;9.216;2023-05-16T12:39:18;14.60;77.10
610;DHT22;292;48.800;9.216;2023-05-16T12:41:47;14.60;76.80
610;DHT22;292;48.800;9.216;2023-05-16T12:44:17;14.60;76.70
610;DHT22;292;48.800;9.216;2023-05-16T12:46:45;14.60;76.40
610;DHT22;292;48.800;9.216;2023-05-16T12:49:13;14.60;76.10
610;DHT22;292;48.800;9.216;2023-05-16T12:51:47;14.60;76.00
610;DHT22;292;48.800;9.216;2023-05-16T12:54:15;14.70;76.00
610;DHT22;292;48.800;9.216;2023-05-16T12:56:42;14.70;75.80
610;DHT22;292;48.800;9.216;2023-05-16T12:59:09;14.70;75.70
610;DHT22;292;48.800;9.216;2023-05-16T13:01:38;14.70;75.50
610;DHT22;292;48.800;9.216;2023-05-16T13:04:07;14.80;75.40
610;DHT22;292;48.800;9.216;2023-05-16T13:06:40;14.80;75.10
610;DHT22;292;48.800;9.216;2023-05-16T13:09:08;14.80;75.00
610;DHT22;292;48.800;9.216;2023-05-16T13:11:37;14.80;74.50
610;DHT22;292;48.800;9.216;2023-05-16T13:14:04;14.70;74.20
610;DHT22;292;48.800;9.216;2023-05-16T13:16:31;14.70;74.20
610;DHT22;292;48.800;9.216;2023-05-16T13:19:00;14.70;74.40
610;DHT22;292;48.800;9.216;2023-05-16T13:21:28;14.70;74.20
610;DHT22;292;48.800;9.216;2023-05-16T13:23:56;14.60;74.10
610;DHT22;292;48.800;9.216;2023-05-16T13:26:23;14.60;73.90
610;DHT22;292;48.800;9.216;2023-05-16T13:28:52;14.60;73.90
610;DHT22;292;48.800;9.216;2023-05-16T13:31:20;14.60;73.90
610;DHT22;292;48.800;9.216;2023-05-16T13:33:47;14.60;73.70
610;DHT22;292;48.800;9.216;2023-05-16T13:36:15;14.60;73.10
610;DHT22;292;48.800;9.216;2023-05-16T13:38:42;14.50;72.80
610;DHT22;292;48.800;9.216;2023-05-16T13:41:10;14.50;72.90
610;DHT22;292;48.800;9.216;2023-05-16T13:43:37;14.50;73.10
610;DHT22;292;48.800;9.216;2023-05-16T13:46:04;14.50;73.20
610;DHT22;292;48.800;9.216;2023-05-16T13:48:31;14.50;73.20
610;DHT22;292;48.800;9.216;2023-05-16T13:50:58;14.50;73.20
610;DHT22;292;48.800;9.216;2023-05-16T13:53:27;14.50;73.20
610;DHT22;292;48.800;9.216;2023-05-16T13:55:54;14.50;73.10
610;DHT22;292;48.800;9.216;2023-05-16T13:58:21;14.50;72.90
610;DHT22;292;48.800;9.216;2023-05-16T14:00:48;14.50;72.80
610;DHT22;292;48.800;9.216;2023-05-16T14:03:15;14.50;72.60
610;DHT22;292;48.800;9.216;2023-05-16T14:05:42;14.50;72.60
610;DHT22;292;48.800;9.216;2023-05-16T14:08:09;14.60;72.60
610;DHT22;292;48.800;9.216;2023-05-16T14:10:38;14.60;72.60
610;DHT22;292;48.800;9.216;2023-05-16T14:13:05;14.60;72.50
610;DHT22;292;48.800;9.216;2023-05-16T14:15:32;14.60;72.40
610;DHT22;292;48.800;9.216;2023-05-16T14:17:59;14.60;72.40
610;DHT22;292;48.800;9.216;2023-05-16T14:20:28;14.60;72.40
610;DHT22;292;48.800;9.216;2023-05-16T14:22:55;14.60;72.20
610;DHT22;292;48.800;9.216;2023-05-16T14:25:22;14.60;72.20
610;DHT22;292;48.800;9.216;2023-05-16T14:27:51;14.60;72.40
610;DHT22;292;48.800;9.216;2023-05-16T14:30:18;14.60;72.10
610;DHT22;292;48.800;9.216;2023-05-16T14:32:46;14.60;72.20
610;DHT22;292;48.800;9.216;2023-05-16T14:35:13;14.60;72.20
610;DHT22;292;48.800;9.216;2023-05-16T14:37:40;14.70;72.10
610;DHT22;292;48.800;9.216;2023-05-16T14:40:08;14.70;72.10
610;DHT22;292;48.800;9.216;2023-05-16T14:42:35;14.70;71.90
610;DHT22;292;48.800;9.216;2023-05-16T14:45:03;14.70;71.80
610;DHT22;292;48.800;9.216;2023-05-16T14:47:31;14.70;71.30
610;DHT22;292;48.800;9.216;2023-05-16T14:49:58;14.70;71.10
610;DHT22;292;48.800;9.216;2023-05-16T14:52:26;14.80;70.90
610;DHT22;292;48.800;9.216;2023-05-16T14:54:53;14.80;70.30
610;DHT22;292;48.800;9.216;2023-05-16T14:57:20;14.80;70.00
610;DHT22;292;48.800;9.216;2023-05-16T14:59:47;14.80;69.90
610;DHT22;292;48.800;9.216;2023-05-16T15:02:16;14.90;69.60
610;DHT22;292;48.800;9.216;2023-05-16T15:04:44;14.90;69.30
610;DHT22;292;48.800;9.216;2023-05-16T15:07:11;15.00;69.00
610;DHT22;292;48.800;9.216;2023-05-16T15:09:38;15.00;68.30
610;DHT22;292;48.800;9.216;2023-05-16T15:12:06;15.00;67.60
610;DHT22;292;48.800;9.216;2023-05-16T15:14:33;15.00;66.70
610;DHT22;292;48.800;9.216;2023-05-16T15:17:00;15.10;66.30
610;DHT22;292;48.800;9.216;2023-05-16T15:19:29;15.10;65.70
610;DHT22;292;48.800;9.216;2023-05-16T15:21:56;15.10;65.70
610;DHT22;292;48.800;9.216;2023-05-16T15:24:24;15.20;65.40
610;DHT22;292;48.800;9.216;2023-05-16T15:26:51;15.20;65.30
610;DHT22;292;48.800;9.216;2023-05-16T15:29:20;15.20;65.10
610;DHT22;292;48.800;9.216;2023-05-16T15:31:47;15.30;64.60
610;DHT22;292;48.800;9.216;2023-05-16T15:34:15;15.30;64.30
610;DHT22;292;48.800;9.216;2023-05-16T15:36:43;15.30;64.10
610;DHT22;292;48.800;9.216;2023-05-16T15:39:10;15.30;64.10
610;DHT22;292;48.800;9.216;2023-05-16T15:41:39;15.40;64.00
610;DHT22;292;48.800;9.216;2023-05-16T15:44:06;15.40;64.10
610;DHT22;292;48.800;9.216;2023-05-16T15:46:34;15.50;64.00
610;DHT22;292;48.800;9.216;2023-05-16T15:49:01;15.50;63.60
610;DHT22;292;48.800;9.216;2023-05-16T15:51:29;15.60;62.80
610;DHT22;292;48.800;9.216;2023-05-16T15:53:58;15.60;62.30
610;DHT22;292;48.800;9.216;2023-05-16T15:56:25;15.60;62.00
610;DHT22;292;48.800;9.216;2023-05-16T15:58:55;15.70;61.80
610;DHT22;292;48.800;9.216;2023-05-16T16:01:22;15.70;61.80
610;DHT22;292;48.800;9.216;2023-05-16T16:03:49;15.70;61.80
610;DHT22;292;48.800;9.216;2023-05-16T16:06:16;15.70;61.80
610;DHT22;292;48.800;9.216;2023-05-16T16:08:44;15.70;61.70
610;DHT22;292;48.800;9.216;2023-05-16T16:11:13;15.70;62.10
610;DHT22;292;48.800;9.216;2023-05-16T16:13:40;15.70;61.70
610;DHT22;292;48.800;9.216;2023-05-16T16:16:07;15.60;61.20
610;DHT22;292;48.800;9.216;2023-05-16T16:18:34;15.60;61.00
610;DHT22;292;48.800;9.216;2023-05-16T16:21:02;15.60;60.80
610;DHT22;292;48.800;9.216;2023-05-16T16:23:30;15.60;60.70
610;DHT22;292;48.800;9.216;2023-05-16T16:25:57;15.60;60.40
610;DHT22;292;48.800;9.216;2023-05-16T16:28:28;15.50;60.40
610;DHT22;292;48.800;9.216;2023-05-16T16:30:55;15.50;60.20
610;DHT22;292;48.800;9.216;2023-05-16T16:33:22;15.50;60.20
610;DHT22;292;48.800;9.216;2023-05-16T16:35:50;15.50;60.10
610;DHT22;292;48.800;9.216;2023-05-16T16:38:20;15.50;59.80
610;DHT22;292;48.800;9.216;2023-05-16T16:40:48;15.50;59.80